Time;durP1;ratioP1;P1;durP2;ratioP2;P2;SDS_P1;SDS_P2;PMS_P1;PMS_P2;Temp;Humidity;BMP_temperature;BMP_pressure;BME280_temperature;BME280_humidity;BME280_pressure;Samples;Min_cycle;Max_cycle;Signal;HPM_P1;HPM_P2
2022/04/28 00:01:11;;;;;;;;;18.00;17.00;;;;;12.43;100.00;101601.78;3726350;37;20729;-75
2022/04/28 00:03:38;;;;;;;;;19.25;18.50;;;;;12.43;100.00;101597.22;3726372;37;20670;-75
2022/04/28 00:06:06;;;;;;;;;16.00;14.50;;;;;12.42;100.00;101600.09;3726830;38;20752;-74
2022/04/28 00:08:33;;;;;;;;;25.00;19.75;;;;;12.35;100.00;101594.50;3725747;38;20824;-74
2022/04/28 00:11:00;;;;;;;;;12.75;11.75;;;;;12.23;100.00;101599.41;3725414;37;20892;-75
2022/04/28 00:13:28;;;;;;;;;17.25;15.25;;;;;12.36;100.00;101592.63;3724857;37;20583;-74
2022/04/28 00:15:55;;;;;;;;;17.25;14.75;;;;;12.35;100.00;101597.22;3725885;38;20862;-74
2022/04/28 00:18:23;;;;;;;;;17.75;15.50;;;;;12.37;100.00;101588.91;3725004;37;20902;-74
2022/04/28 00:20:50;;;;;;;;;18.00;18.00;;;;;12.42;100.00;101590.09;3725490;38;20756;-74
2022/04/28 00:23:17;;;;;;;;;16.00;14.50;;;;;12.49;100.00;101595.66;3725959;38;20698;-76
2022/04/28 00:25:44;;;;;;;;;16.50;16.50;;;;;12.51;100.00;101588.19;3726000;37;20606;-75
2022/04/28 00:28:12;;;;;;;;;14.00;13.25;;;;;12.45;100.00;101591.62;3725643;37;20761;-74
2022/04/28 00:30:39;;;;;;;;;10.00;9.00;;;;;12.34;100.00;101589.25;3724677;38;20744;-74
2022/04/28 00:33:06;;;;;;;;;12.25;12.25;;;;;12.36;100.00;101581.78;3725205;37;20624;-76
2022/04/28 00:35:33;;;;;;;;;11.00;10.25;;;;;12.31;100.00;101579.56;3725772;37;20692;-74
2022/04/28 00:38:01;;;;;;;;;11.25;11.25;;;;;12.32;100.00;101583.13;3726216;38;20700;-75
2022/04/28 00:40:28;;;;;;;;;11.75;10.00;;;;;12.33;100.00;101582.13;3726027;38;20668;-74
2022/04/28 00:43:18;;;;;;;;;9.00;8.50;;;;;12.25;100.00;101581.09;3725871;38;20759;-74
2022/04/28 00:50:57;;;;;;;;;12.00;10.00;;;;;12.09;100.00;101564.81;3726131;37;20608;-73
2022/04/28 00:53:28;;;;;;;;;10.00;10.00;;;;;12.17;100.00;101578.38;3726297;38;20541;-74
2022/04/28 00:55:59;;;;;;;;;12.75;10.75;;;;;12.14;100.00;101569.72;3726164;37;20758;-74
2022/04/28 00:58:27;;;;;;;;;13.00;12.00;;;;;12.13;100.00;101568.03;3726120;37;20521;-75
2022/04/28 01:00:56;;;;;;;;;9.00;9.00;;;;;12.03;100.00;101551.91;3726390;37;20587;-74
2022/04/28 01:03:23;;;;;;;;;11.00;9.75;;;;;12.07;100.00;101555.97;3727159;38;20861;-75
2022/04/28 01:05:50;;;;;;;;;9.00;9.00;;;;;12.05;100.00;101557.16;3726394;37;20557;-75
2022/04/28 01:08:17;;;;;;;;;9.25;9.25;;;;;11.53;100.00;101466.06;3726630;38;20599;-75
2022/04/28 01:10:45;;;;;;;;;8.00;8.00;;;;;11.77;100.00;101508.69;3726413;38;20527;-75
2022/04/28 01:45:43;;;;;;;;;18.50;17.50;;;;;11.59;100.00;101514.22;3727083;37;40156;-63
2022/04/28 01:48:20;;;;;;;;;11.00;10.50;;;;;11.58;100.00;101503.53;3726620;37;21346;-63
2022/04/28 02:08:13;;;;;;;;;12.50;12.25;;;;;11.52;100.00;101501.47;3727586;37;39181;-62
2022/04/28 02:10:41;;;;;;;;;11.50;11.50;;;;;11.55;100.00;101503.84;3727787;38;20996;-60
2022/04/28 02:13:21;;;;;;;;;3.50;2.25;;;;;11.55;100.00;101510.12;3727169;37;21025;-59
2022/04/28 02:16:26;;;;;;;;;9.00;9.00;;;;;11.53;100.00;101503.19;3727684;38;20955;-60
2022/04/28 02:19:05;;;;;;;;;9.00;9.00;;;;;11.51;100.00;101503.34;3727567;37;21071;-60
2022/04/28 02:21:33;;;;;;;;;6.50;6.25;;;;;11.54;100.00;101518.44;3727687;37;21036;-60
2022/04/28 02:24:01;;;;;;;;;10.00;9.25;;;;;11.58;100.00;101520.66;3727621;38;20924;-60
2022/04/28 02:26:29;;;;;;;;;12.50;10.75;;;;;11.63;100.00;101519.28;3726787;38;20974;-60
2022/04/28 02:28:57;;;;;;;;;6.00;6.00;;;;;11.67;100.00;101523.38;3727716;37;21131;-60
2022/04/28 02:31:32;;;;;;;;;9.00;9.00;;;;;11.65;100.00;101526.25;3727596;37;21010;-60
2022/04/28 02:34:00;;;;;;;;;9.50;9.00;;;;;11.62;100.00;101534.72;3726913;37;20964;-60
2022/04/28 02:36:35;;;;;;;;;9.00;8.75;;;;;11.67;100.00;101537.78;3727673;37;20932;-61
2022/04/28 02:39:03;;;;;;;;;8.00;8.00;;;;;11.67;100.00;101535.06;3727009;38;20965;-63
2022/04/28 02:41:32;;;;;;;;;12.00;9.50;;;;;11.67;100.00;101548.63;3727012;38;21045;-61
2022/04/28 02:44:01;;;;;;;;;11.50;10.50;;;;;11.65;100.00;101547.09;3727607;37;21033;-62
2022/04/28 02:46:31;;;;;;;;;9.25;8.50;;;;;11.67;100.00;101542.34;3727562;37;21001;-63
2022/04/28 02:49:08;;;;;;;;;7.50;6.00;;;;;11.65;100.00;101545.22;3727588;37;21085;-62
2022/04/28 02:51:38;;;;;;;;;12.25;9.75;;;;;11.70;100.00;101542.03;3727729;38;20983;-60
2022/04/28 02:54:06;;;;;;;;;10.75;9.50;;;;;11.71;100.00;101546.44;3727475;38;21062;-59
2022/04/28 02:56:43;;;;;;;;;10.75;10.75;;;;;11.68;100.00;101552.19;3727761;37;20916;-59
2022/04/28 02:59:11;;;;;;;;;9.25;9.25;;;;;11.70;100.00;101544.72;3727282;37;21006;-62
2022/04/28 03:01:38;;;;;;;;;10.75;9.75;;;;;11.68;100.00;101544.06;3727306;37;20963;-60
2022/04/28 03:04:07;;;;;;;;;8.50;8.00;;;;;11.64;100.00;101551.66;3727519;37;20926;-59
2022/04/28 03:12:19;;;;;;;;;9.75;9.00;;;;;11.73;100.00;101550.69;3726869;37;20915;-60
2022/04/28 03:14:57;;;;;;;;;14.00;13.50;;;;;11.80;100.00;101545.47;3727624;38;21001;-61
2022/04/28 03:17:25;;;;;;;;;10.50;10.00;;;;;11.84;100.00;101550.38;3727654;37;21075;-62
2022/04/28 03:19:53;;;;;;;;;16.75;15.75;;;;;11.85;100.00;101551.25;3727731;38;20891;-60
2022/04/28 03:22:21;;;;;;;;;14.50;13.75;;;;;11.82;100.00;101557.00;3727514;37;20965;-59
2022/04/28 03:24:48;;;;;;;;;8.75;8.75;;;;;11.82;100.00;101562.41;3728021;37;20875;-60
2022/04/28 03:27:16;;;;;;;;;10.00;10.00;;;;;11.83;100.00;101559.53;3727372;38;20745;-60
2022/04/28 03:29:45;;;;;;;;;14.50;14.50;;;;;11.87;100.00;101560.91;3728109;38;20999;-59
2022/04/28 03:32:13;;;;;;;;;9.50;9.50;;;;;11.81;100.00;101564.28;3728214;38;20915;-61
2022/04/28 03:35:04;;;;;;;;;9.25;9.25;;;;;11.81;100.00;101567.00;3727870;37;20940;-61
2022/04/28 03:37:31;;;;;;;;;11.50;10.50;;;;;11.83;100.00;101569.53;3727092;37;21072;-62
2022/04/28 03:39:59;;;;;;;;;12.50;12.50;;;;;11.85;100.00;101573.78;3726988;38;20738;-61
2022/04/28 03:42:29;;;;;;;;;11.00;11.00;;;;;11.87;100.00;101579.03;3727366;38;20856;-61
2022/04/28 03:44:58;;;;;;;;;22.75;21.50;;;;;11.93;100.00;101570.25;3727576;37;20783;-61
2022/04/28 03:47:35;;;;;;;;;27.50;25.00;;;;;12.01;100.00;101572.09;3727079;37;20810;-61
2022/04/28 03:50:06;;;;;;;;;16.50;15.50;;;;;12.02;100.00;101573.78;3727054;37;20878;-63
2022/04/28 03:52:35;;;;;;;;;15.50;15.50;;;;;12.03;100.00;101562.75;3726972;37;20796;-60
2022/04/28 03:55:05;;;;;;;;;10.00;9.75;;;;;11.95;100.00;101568.22;3727103;37;20783;-58
2022/04/28 03:57:32;;;;;;;;;9.50;9.00;;;;;11.98;100.00;101584.12;3727201;37;20914;-59
2022/04/28 04:00:00;;;;;;;;;13.75;12.25;;;;;11.97;100.00;101585.13;3727874;37;20711;-57
2022/04/28 04:02:48;;;;;;;;;10.00;10.00;;;;;11.95;100.00;101584.50;3728103;38;20848;-59
2022/04/28 04:05:16;;;;;;;;;9.75;8.75;;;;;11.97;100.00;101587.84;3727307;37;20814;-58
2022/04/28 04:07:44;;;;;;;;;12.75;12.75;;;;;12.05;100.00;101593.28;3727682;38;20715;-57
2022/04/28 04:10:22;;;;;;;;;19.75;19.75;;;;;12.06;100.00;101592.28;3727870;38;20769;-59
2022/04/28 04:12:55;;;;;;;;;10.75;9.25;;;;;12.07;100.00;101593.97;3727743;37;20777;-58
2022/04/28 04:15:43;;;;;;;;;15.00;15.00;;;;;12.09;100.00;101596.50;3727189;38;20836;-59
2022/04/28 04:18:33;;;;;;;;;12.00;12.00;;;;;12.09;100.00;101591.94;3727064;37;20871;-59
2022/04/28 04:21:13;;;;;;;;;11.75;11.75;;;;;12.19;100.00;101597.19;3727701;37;20940;-58
2022/04/28 04:23:41;;;;;;;;;12.25;10.75;;;;;12.19;100.00;101599.91;3727852;37;20843;-59
2022/04/28 04:26:08;;;;;;;;;8.75;8.75;;;;;12.23;100.00;101601.28;3727777;37;20810;-58
2022/04/28 04:28:37;;;;;;;;;18.50;17.25;;;;;12.31;100.00;101595.00;3727834;38;20672;-59
2022/04/28 04:34:45;;;;;;;;;13.00;10.00;;;;;12.41;100.00;101599.25;3727766;38;21024;-59
2022/04/28 04:37:15;;;;;;;;;13.75;12.75;;;;;12.36;100.00;101589.91;3728013;38;20808;-60
2022/04/28 04:39:44;;;;;;;;;15.00;12.25;;;;;12.33;100.00;101591.09;3727261;37;20918;-59
2022/04/28 04:42:12;;;;;;;;;14.25;12.00;;;;;12.37;100.00;101595.19;3727837;38;20879;-58
2022/04/28 04:44:39;;;;;;;;;12.25;12.25;;;;;12.40;100.00;101589.41;3727902;38;20918;-57
2022/04/28 04:47:07;;;;;;;;;10.25;9.75;;;;;12.38;100.00;101593.31;3726885;38;20784;-57
2022/04/28 04:49:54;;;;;;;;;12.25;10.75;;;;;12.51;100.00;101599.03;3727202;37;20855;-57
2022/04/28 04:52:36;;;;;;;;;10.50;10.50;;;;;12.51;100.00;101599.91;3727821;37;20812;-60
2022/04/28 04:55:06;;;;;;;;;9.00;7.25;;;;;12.49;100.00;101599.22;3727716;38;20905;-59
2022/04/28 04:57:39;;;;;;;;;8.50;8.50;;;;;12.51;100.00;101599.91;3728008;38;20764;-63
2022/04/28 05:00:08;;;;;;;;;9.75;9.75;;;;;12.47;100.00;101589.56;3727705;38;20740;-61
2022/04/28 05:02:54;;;;;;;;;9.75;8.50;;;;;12.34;100.00;101581.94;3727665;37;20901;-59
2022/04/28 05:05:40;;;;;;;;;8.75;8.75;;;;;12.33;100.00;101587.53;3727781;37;20837;-61
2022/04/28 05:08:18;;;;;;;;;10.00;9.50;;;;;12.33;100.00;101582.13;3727127;37;20737;-61
2022/04/28 05:10:58;;;;;;;;;9.50;8.00;;;;;12.29;100.00;101580.75;3727904;37;20852;-60
2022/04/28 05:13:26;;;;;;;;;6.75;6.75;;;;;12.33;100.00;101585.69;3728021;37;20704;-63
2022/04/28 05:15:55;;;;;;;;;7.25;6.00;;;;;12.33;100.00;101587.53;3727838;37;20810;-61
2022/04/28 05:18:33;;;;;;;;;11.00;9.25;;;;;12.30;100.00;101585.16;3727467;37;20875;-61
2022/04/28 05:21:16;;;;;;;;;9.25;9.25;;;;;12.28;100.00;101585.34;3727977;38;20793;-61
2022/04/28 05:24:06;;;;;;;;;11.25;10.00;;;;;12.36;100.00;101581.78;3728319;37;20968;-62
2022/04/28 05:27:11;;;;;;;;;6.25;6.25;;;;;12.43;100.00;101580.94;3727844;38;20922;-62
2022/04/28 05:30:12;;;;;;;;;9.00;9.00;;;;;12.48;100.00;101586.66;3728184;37;20679;-62
2022/04/28 05:32:58;;;;;;;;;8.00;8.00;;;;;12.42;100.00;101576.50;3727611;38;20732;-62
2022/04/28 05:35:45;;;;;;;;;9.50;9.00;;;;;12.52;100.00;101588.03;3727821;38;20955;-58
2022/04/28 05:38:13;;;;;;;;;14.00;13.75;;;;;12.53;100.00;101591.59;3727601;37;20901;-59
2022/04/28 05:40:42;;;;;;;;;16.50;15.75;;;;;12.61;100.00;101591.56;3727647;37;20766;-60
2022/04/28 05:46:03;;;;;;;;;10.50;10.50;;;;;12.65;100.00;101605.66;3727288;38;20779;-58
2022/04/28 05:48:34;;;;;;;;;9.00;7.00;;;;;12.59;100.00;101602.59;3727554;37;20846;-59
2022/04/28 05:51:02;;;;;;;;;9.00;9.00;;;;;12.56;100.00;101602.94;3727412;37;20731;-59
2022/04/28 05:53:30;;;;;;;;;7.50;6.50;;;;;12.66;100.00;101607.34;3726782;37;20652;-58
2022/04/28 05:56:05;;;;;;;;;11.50;10.25;;;;;12.81;100.00;101616.50;3726896;38;20774;-58
2022/04/28 05:58:46;;;;;;;;;11.00;10.75;;;;;12.89;100.00;101619.22;3727119;37;21008;-60
2022/04/28 06:01:32;;;;;;;;;15.50;15.00;;;;;12.98;100.00;101620.91;3727316;38;21000;-60
2022/04/28 06:04:06;;;;;;;;;14.00;14.00;;;;;13.02;100.00;101624.09;3726987;37;20959;-57
2022/04/28 06:06:35;;;;;;;;;10.50;10.50;;;;;13.00;100.00;101624.25;3727500;37;20737;-59
2022/04/28 06:09:09;;;;;;;;;9.75;9.75;;;;;12.97;100.00;101626.50;3729217;38;20727;-60
2022/04/28 06:11:38;;;;;;;;;7.00;7.00;;;;;12.88;100.00;101618.38;3727661;37;20591;-58
2022/04/28 06:14:06;;;;;;;;;10.00;10.00;;;;;12.90;100.00;101624.47;3727477;37;20538;-58
2022/04/28 06:16:51;;;;;;;;;11.25;11.25;;;;;12.95;100.00;101625.81;3727715;37;20734;-58
2022/04/28 06:19:24;;;;;;;;;17.25;13.00;;;;;12.94;100.00;101638.56;3726713;38;20643;-60
2022/04/28 06:22:23;;;;;;;;;11.50;11.00;;;;;12.90;100.00;101640.78;3727574;37;20690;-59
2022/04/28 06:24:52;;;;;;;;;10.00;10.00;;;;;12.90;100.00;101648.09;3727140;38;20645;-62
2022/04/28 06:27:22;;;;;;;;;14.00;13.00;;;;;12.96;100.00;101650.13;3727564;38;20634;-57
2022/04/28 06:29:52;;;;;;;;;13.75;12.75;;;;;12.97;100.00;101645.53;3727549;38;20669;-58
2022/04/28 06:32:33;;;;;;;;;13.25;11.75;;;;;13.01;100.00;101652.28;3726437;37;20634;-59
2022/04/28 06:35:22;;;;;;;;;17.50;17.50;;;;;13.03;100.00;101655.69;3727660;37;20601;-60
2022/04/28 06:37:50;;;;;;;;;26.00;23.75;;;;;13.02;100.00;101653.97;3727467;38;20652;-57
2022/04/28 06:40:19;;;;;;;;;15.00;15.00;;;;;13.07;100.00;101657.88;3726693;37;20825;-58
2022/04/28 06:42:52;;;;;;;;;22.25;16.75;;;;;12.94;100.00;101641.28;3725163;38;21044;-57
2022/04/28 06:48:48;;;;;;;;;16.25;15.00;;;;;13.00;100.00;101642.47;3724095;37;20746;-58
2022/04/28 06:51:42;;;;;;;;;16.00;16.00;;;;;13.03;100.00;101633.94;3724267;38;20931;-57
2022/04/28 06:54:15;;;;;;;;;13.75;13.75;;;;;12.84;100.00;101632.47;3724389;37;20855;-60
2022/04/28 06:56:47;;;;;;;;;17.00;13.75;;;;;12.86;100.00;101622.28;3724301;38;20763;-58
2022/04/28 06:59:16;;;;;;;;;15.25;13.00;;;;;12.89;100.00;101628.22;3724318;37;20854;-59
2022/04/28 07:01:46;;;;;;;;;14.75;14.00;;;;;12.98;100.00;101633.63;3724044;38;20981;-59
2022/04/28 07:04:14;;;;;;;;;15.00;14.50;;;;;13.02;100.00;101637.66;3723982;37;20943;-58
2022/04/28 07:06:43;;;;;;;;;14.75;14.25;;;;;13.15;100.00;101659.72;3723850;38;20716;-59
2022/04/28 07:09:12;;;;;;;;;13.75;11.50;;;;;13.17;100.00;101655.84;3723775;38;20851;-59
2022/04/28 07:11:40;;;;;;;;;14.50;13.50;;;;;13.19;100.00;101658.41;3723773;37;20664;-59
2022/04/28 07:14:43;;;;;;;;;17.25;16.00;;;;;13.32;100.00;101666.84;3724056;37;20771;-59
2022/04/28 07:17:29;;;;;;;;;14.50;14.50;;;;;13.47;100.00;101664.25;3724112;37;20666;-58
2022/04/28 07:20:02;;;;;;;;;15.50;14.50;;;;;13.50;100.00;101653.03;3723847;37;20666;-60
2022/04/28 07:22:31;;;;;;;;;12.50;10.75;;;;;13.53;100.00;101653.50;3723707;37;20793;-60
2022/04/28 07:25:00;;;;;;;;;17.75;17.75;;;;;13.51;100.00;101649.28;3724101;37;20679;-59
2022/04/28 07:27:27;;;;;;;;;16.00;15.00;;;;;13.62;100.00;101651.59;3724568;38;20654;-60
2022/04/28 07:30:04;;;;;;;;;18.50;17.25;;;;;13.72;100.00;101648.66;3723802;37;20656;-60
2022/04/28 07:32:40;;;;;;;;;10.75;10.75;;;;;13.64;100.00;101659.59;3724907;37;20768;-58
2022/04/28 07:35:38;;;;;;;;;14.50;14.00;;;;;13.69;100.00;101655.31;3724603;37;20815;-59
2022/04/28 07:38:23;;;;;;;;;21.25;19.50;;;;;13.80;100.00;101645.91;3725436;38;20884;-60
2022/04/28 07:41:14;;;;;;;;;12.75;11.25;;;;;13.63;100.00;101647.00;3724694;38;20591;-60
2022/04/28 07:43:42;;;;;;;;;12.00;12.00;;;;;13.66;100.00;101646.66;3723985;38;20653;-60
2022/04/28 07:46:10;;;;;;;;;10.75;10.75;;;;;13.53;100.00;101648.06;3724640;38;20630;-60
2022/04/28 16:05:53;;;;;;;;;8.50;8.50;;;;;11.57;100.00;101708.75;3723946;38;20557;-57
2022/04/28 16:08:20;;;;;;;;;9.50;9.00;;;;;11.57;100.00;101713.31;3723898;37;20576;-58
2022/04/28 16:10:47;;;;;;;;;6.50;6.50;;;;;11.48;100.00;101720.56;3723468;37;20553;-56
2022/04/28 16:13:15;;;;;;;;;7.00;5.75;;;;;11.46;100.00;101714.44;3723530;37;20545;-57
2022/04/28 16:15:42;;;;;;;;;6.00;6.00;;;;;11.49;100.00;101719.53;3723556;37;20587;-57
2022/04/28 16:18:12;;;;;;;;;9.00;9.00;;;;;11.53;100.00;101725.50;3723523;38;20546;-56
2022/04/28 16:20:40;;;;;;;;;9.50;7.00;;;;;11.46;100.00;101719.84;3722789;37;20563;-56
2022/04/28 16:23:07;;;;;;;;;13.00;10.25;;;;;11.48;100.00;101725.97;3722584;37;20478;-58
2022/04/28 16:25:34;;;;;;;;;11.00;11.00;;;;;11.43;100.00;101731.06;3722811;38;20495;-56
2022/04/28 16:28:01;;;;;;;;;9.00;9.00;;;;;11.42;100.00;101732.06;3722747;37;20489;-57
2022/04/28 16:30:28;;;;;;;;;8.50;8.50;;;;;11.39;100.00;101728.81;3723508;37;20543;-57
2022/04/28 16:32:56;;;;;;;;;8.25;8.25;;;;;11.37;100.00;101731.69;3723613;38;20506;-58
2022/04/28 16:35:23;;;;;;;;;9.00;8.00;;;;;11.32;100.00;101731.31;3723657;38;20519;-58
2022/04/28 16:37:50;;;;;;;;;7.50;6.50;;;;;11.28;100.00;101730.78;3723646;38;20525;-57
2022/04/28 16:40:17;;;;;;;;;8.25;8.25;;;;;11.27;100.00;101730.94;3723569;37;20389;-58
2022/04/28 16:42:45;;;;;;;;;15.00;11.75;;;;;11.30;100.00;101733.34;3723622;37;20472;-58
2022/04/28 16:45:12;;;;;;;;;16.00;16.00;;;;;11.32;100.00;101727.75;3723736;37;20579;-58
2022/04/28 16:47:39;;;;;;;;;9.50;9.00;;;;;11.19;100.00;101723.62;3723537;38;20645;-58
2022/04/28 16:50:07;;;;;;;;;9.00;8.75;;;;;11.23;100.00;101729.56;3723315;37;20535;-57
2022/04/28 16:52:35;;;;;;;;;12.00;12.00;;;;;11.18;100.00;101731.91;3722616;38;20496;-58
2022/04/28 16:55:02;;;;;;;;;9.25;9.00;;;;;11.17;100.00;101743.75;3723519;38;20472;-59
2022/04/28 16:57:30;;;;;;;;;10.00;9.50;;;;;11.13;100.00;101743.22;3722806;37;20537;-58
2022/04/28 16:59:57;;;;;;;;;10.75;10.75;;;;;11.19;100.00;101748.00;3723463;37;20533;-59
2022/04/28 17:02:24;;;;;;;;;12.00;12.00;;;;;11.21;100.00;101747.84;3723194;38;20434;-58
2022/04/28 17:04:51;;;;;;;;;12.00;11.00;;;;;11.21;100.00;101754.12;3723476;38;20538;-58
2022/04/28 17:07:18;;;;;;;;;11.00;11.00;;;;;11.19;100.00;101749.84;3723575;38;20496;-59
2022/04/28 17:09:45;;;;;;;;;7.00;7.00;;;;;11.18;100.00;101762.56;3723684;37;20434;-58
2022/04/28 17:12:12;;;;;;;;;8.25;8.25;;;;;11.17;100.00;101762.72;3723915;37;20386;-60
2022/04/28 17:14:40;;;;;;;;;8.75;8.75;;;;;11.16;100.00;101761.88;3723912;37;20388;-59
2022/04/28 17:17:07;;;;;;;;;7.00;7.00;;;;;11.12;100.00;101760.47;3723151;38;20448;-60
2022/04/28 17:19:40;;;;;;;;;9.75;9.75;;;;;11.07;100.00;101764.66;3722698;37;20458;-60
2022/04/28 17:22:09;;;;;;;;;4.00;4.00;;;;;11.05;100.00;101756.69;3723557;38;20507;-61
2022/04/28 17:24:37;;;;;;;;;12.50;11.50;;;;;11.05;100.00;101764.81;3722957;38;20398;-60
2022/04/28 17:27:04;;;;;;;;;9.75;8.75;;;;;11.05;100.00;101764.81;3722961;37;20472;-62
2022/04/28 17:29:50;;;;;;;;;8.50;8.50;;;;;11.08;100.00;101766.38;3723416;37;20474;-61
2022/04/28 17:32:17;;;;;;;;;8.50;7.00;;;;;11.05;100.00;101775.66;3723710;38;20544;-61
2022/04/28 17:34:46;;;;;;;;;11.00;9.75;;;;;11.02;100.00;101781.38;3723875;37;20520;-61
2022/04/28 17:37:14;;;;;;;;;9.25;9.00;;;;;11.03;100.00;101790.38;3723774;38;20386;-61
2022/04/28 17:39:42;;;;;;;;;12.00;9.50;;;;;10.98;100.00;101781.84;3723143;37;20563;-63
2022/04/28 17:42:09;;;;;;;;;12.50;12.00;;;;;10.99;100.00;101783.56;3723853;38;20608;-62
2022/04/28 17:44:37;;;;;;;;;13.25;12.00;;;;;11.03;100.00;101787.66;3723184;37;20474;-62
2022/04/28 17:47:04;;;;;;;;;11.00;11.00;;;;;11.04;100.00;101800.19;3723820;37;20651;-59
2022/04/28 17:49:32;;;;;;;;;9.00;8.50;;;;;10.99;100.00;101803.37;3722874;38;20448;-60
2022/04/28 17:52:02;;;;;;;;;9.00;9.00;;;;;10.98;100.00;101792.69;3723683;37;20422;-61
2022/04/28 17:54:29;;;;;;;;;6.00;6.00;;;;;10.97;100.00;101804.53;3723675;37;20339;-62
2022/04/28 17:59:53;;;;;;;;;8.25;8.00;;;;;10.97;100.00;101807.25;3723782;37;20374;-60
2022/04/28 18:02:51;;;;;;;;;9.50;9.25;;;;;10.94;100.00;101809.25;3723825;37;20535;-60
2022/04/28 18:05:22;;;;;;;;;11.75;9.25;;;;;10.90;100.00;101812.47;3723126;38;20460;-59
2022/04/28 18:07:49;;;;;;;;;8.75;7.50;;;;;10.90;100.00;101831.41;3723815;37;20343;-60
2022/04/28 18:10:18;;;;;;;;;6.25;6.25;;;;;10.89;100.00;101830.56;3723065;37;20574;-59
2022/04/28 18:12:46;;;;;;;;;9.25;8.25;;;;;10.85;100.00;101829.19;3723942;37;20323;-61
2022/04/28 18:15:14;;;;;;;;;7.75;7.75;;;;;10.82;100.00;101828.62;3723556;37;20325;-63
2022/04/28 18:17:41;;;;;;;;;5.75;5.50;;;;;10.77;100.00;101837.22;3723893;38;20375;-62
2022/04/28 18:20:09;;;;;;;;;8.00;8.00;;;;;10.74;100.00;101833.97;3723183;37;20536;-62
2022/04/28 18:22:36;;;;;;;;;10.75;9.00;;;;;10.72;100.00;101836.81;3723821;38;20364;-59
2022/04/28 18:25:04;;;;;;;;;5.25;5.25;;;;;10.65;100.00;101833.03;3723821;38;20483;-59
2022/04/28 18:27:31;;;;;;;;;8.50;8.00;;;;;10.67;100.00;101841.84;3723740;37;20368;-62
2022/04/28 18:29:58;;;;;;;;;8.75;5.75;;;;;10.63;100.00;101836.87;3723446;38;20878;-61
2022/04/28 18:32:25;;;;;;;;;8.00;6.00;;;;;10.62;100.00;101838.75;3723792;38;20300;-61
2022/04/28 18:34:52;;;;;;;;;8.00;7.50;;;;;10.60;100.00;101846.16;3723830;37;20266;-61
2022/04/28 18:45:36;;;;;;;;;8.00;6.50;;;;;10.46;100.00;101843.97;3723714;38;20271;-61
2022/04/28 18:48:03;;;;;;;;;7.75;7.75;;;;;10.42;100.00;101843.41;3723856;37;20249;-60
2022/04/28 18:50:31;;;;;;;;;7.75;7.75;;;;;10.46;100.00;101843.97;3723797;37;20237;-61
2022/04/28 18:52:58;;;;;;;;;5.00;5.00;;;;;10.46;100.00;101844.81;3723848;38;20320;-60
2022/04/28 18:55:26;;;;;;;;;11.00;10.00;;;;;10.44;100.00;101860.34;3723757;37;20227;-60
2022/04/28 18:57:53;;;;;;;;;11.00;11.00;;;;;10.42;100.00;101858.78;3723819;37;20232;-60
2022/04/28 19:00:23;;;;;;;;;10.75;9.50;;;;;10.43;100.00;101864.06;3723808;37;20347;-61
2022/04/28 19:02:50;;;;;;;;;8.25;7.75;;;;;10.44;100.00;101863.06;3723706;38;20309;-59
2022/04/28 19:07:45;;;;;;;;;8.25;8.25;;;;;10.37;100.00;101867.41;3723976;37;20219;-62
2022/04/28 19:10:12;;;;;;;;;8.00;8.00;;;;;10.36;100.00;101863.00;3723193;38;20249;-64
2022/04/28 19:12:42;;;;;;;;;4.00;2.50;;;;;10.39;100.00;101870.81;3723811;37;20208;-61
2022/04/28 19:15:12;;;;;;;;;5.25;5.00;;;;;10.33;100.00;101876.81;3723736;37;20277;-63
2022/04/28 19:17:40;;;;;;;;;6.25;6.25;;;;;10.32;100.00;101872.41;3723825;38;20209;-61
2022/04/28 19:20:09;;;;;;;;;9.00;9.00;;;;;10.28;100.00;101874.56;3723858;38;20176;-60
2022/04/28 19:22:39;;;;;;;;;5.00;5.00;;;;;10.32;100.00;101882.38;3723154;37;20249;-62
2022/04/28 19:25:10;;;;;;;;;5.00;5.00;;;;;10.32;100.00;101883.22;3722730;37;20698;-60
2022/04/28 19:27:40;;;;;;;;;5.25;5.25;;;;;10.28;100.00;101879.97;3723859;38;20296;-62
2022/04/28 19:30:09;;;;;;;;;7.00;5.00;;;;;10.33;100.00;101884.09;3723584;37;20276;-62
2022/04/28 19:32:36;;;;;;;;;6.75;5.50;;;;;10.36;100.00;101894.59;3723818;37;20313;-62
2022/04/28 19:35:04;;;;;;;;;4.75;4.75;;;;;10.36;100.00;101898.16;3723691;38;20174;-60
2022/04/28 19:37:31;;;;;;;;;7.50;6.25;;;;;10.32;100.00;101896.75;3723867;37;20187;-64
2022/04/28 19:39:59;;;;;;;;;4.00;3.00;;;;;10.34;100.00;101905.59;3723722;38;20235;-62
2022/04/28 19:42:26;;;;;;;;;6.50;6.50;;;;;10.32;100.00;101910.28;3723785;38;20182;-63
2022/04/28 19:44:53;;;;;;;;;6.25;5.00;;;;;10.33;100.00;101909.28;3723712;38;20266;-61
2022/04/28 19:47:20;;;;;;;;;3.50;3.50;;;;;10.26;100.00;101914.44;3723744;37;20421;-61
2022/04/28 19:49:47;;;;;;;;;5.00;5.00;;;;;10.25;100.00;101911.87;3723763;37;20185;-61
2022/04/28 19:52:15;;;;;;;;;6.50;5.50;;;;;10.28;100.00;101912.44;3723699;38;20376;-60
2022/04/28 19:54:46;;;;;;;;;2.50;2.00;;;;;10.21;100.00;101908.63;3723580;38;20462;-59
2022/04/28 19:57:15;;;;;;;;;5.00;4.50;;;;;10.28;100.00;101917.00;3723589;38;21244;-61
2022/04/28 19:59:43;;;;;;;;;6.25;6.25;;;;;10.25;100.00;101920.84;3723430;37;20711;-61
2022/04/28 20:04:38;;;;;;;;;3.00;3.00;;;;;10.19;100.00;101917.84;3723507;38;21228;-62
2022/04/28 20:07:11;;;;;;;;;5.75;5.75;;;;;10.20;100.00;101922.28;3723624;37;21131;-61
2022/04/28 20:09:41;;;;;;;;;5.00;5.00;;;;;10.17;100.00;101919.84;3722694;37;21179;-62
2022/04/28 20:12:09;;;;;;;;;4.75;4.00;;;;;10.13;100.00;101929.25;3723332;37;21166;-61
2022/04/28 20:14:36;;;;;;;;;5.50;5.50;;;;;10.11;100.00;101928.56;3723488;37;21141;-61
2022/04/28 20:17:04;;;;;;;;;4.75;4.75;;;;;10.05;100.00;101924.59;3723974;37;21203;-61
2022/04/28 20:19:33;;;;;;;;;4.00;4.00;;;;;10.04;100.00;101919.31;3723863;37;21215;-61
2022/04/28 20:22:01;;;;;;;;;5.00;5.00;;;;;9.99;100.00;101925.16;3723650;38;21199;-62
2022/04/28 20:24:28;;;;;;;;;8.00;5.75;;;;;9.99;100.00;101921.63;3722993;38;21196;-60
2022/04/28 20:26:58;;;;;;;;;2.00;2.00;;;;;9.95;100.00;101940.84;3723820;38;21210;-61
2022/04/28 20:29:26;;;;;;;;;5.00;5.00;;;;;9.94;100.00;101932.88;3723433;37;21306;-61
2022/04/28 20:31:55;;;;;;;;;4.00;4.00;;;;;9.96;100.00;101939.84;3723726;38;21197;-59
2022/04/28 20:34:22;;;;;;;;;3.00;3.00;;;;;9.88;100.00;101941.56;3723844;37;21079;-60
2022/04/28 20:36:49;;;;;;;;;4.25;2.00;;;;;9.86;100.00;101949.00;3724136;37;21294;-60
2022/04/28 20:39:17;;;;;;;;;1.75;1.75;;;;;9.81;100.00;101944.03;3724080;37;21222;-59
2022/04/28 20:41:47;;;;;;;;;11.75;11.25;;;;;9.82;100.00;101940.31;3724163;38;21193;-60
2022/04/28 20:44:20;;;;;;;;;8.00;7.00;;;;;9.85;100.00;101941.87;3724023;37;21329;-59
2022/04/28 20:46:47;;;;;;;;;3.50;2.00;;;;;9.85;100.00;101952.69;3724035;38;21187;-59
2022/04/28 20:49:15;;;;;;;;;3.50;2.50;;;;;9.89;100.00;101951.38;3723624;37;21219;-60
2022/04/28 20:51:44;;;;;;;;;6.00;5.00;;;;;9.81;100.00;101945.87;3723159;37;21310;-62
2022/04/28 20:54:12;;;;;;;;;4.00;3.50;;;;;9.85;100.00;101956.25;3723681;37;21091;-61
2022/04/28 20:56:39;;;;;;;;;3.50;3.50;;;;;9.83;100.00;101942.03;3723988;37;21125;-61
2022/04/28 20:59:06;;;;;;;;;4.50;4.50;;;;;9.86;100.00;101952.56;3723551;37;21089;-62
2022/04/28 21:01:33;;;;;;;;;2.00;2.00;;;;;9.86;100.00;101952.56;3723064;37;21086;-63
2022/04/28 21:04:00;;;;;;;;;4.75;4.00;;;;;9.73;100.00;101922.25;3723630;38;21241;-60
2022/04/28 21:06:27;;;;;;;;;4.00;4.00;;;;;9.87;100.00;101954.25;3723818;38;21151;-61
2022/04/28 21:08:54;;;;;;;;;4.00;4.00;;;;;9.89;100.00;101949.53;3723799;38;21133;-61
2022/04/28 21:11:22;;;;;;;;;4.50;4.50;;;;;9.91;100.00;101952.94;3723789;38;21234;-60